| time (UTC) | temp F | wind direction | speed MPH | gust MPH | rain 1hr in | rain 24hr in | rain mn in | humidity % | barometer mb |
| 20260831131756 | 74 | 81 | 0.0 | 1.0 | 0.00 | 0.00 | 0.00 | 86 | 1011.2 |
| 20260831131253 | 73 | 81 | 0.0 | 0.0 | 0.00 | 0.00 | 0.00 | 86 | 1010.8 |
| 20260831130748 | 73 | 82 | 2.0 | 3.0 | 0.00 | 0.00 | 0.00 | 86 | 1010.9 |
| 20260831130243 | 73 | 80 | 1.0 | 1.0 | 0.00 | 0.00 | 0.00 | 87 | 1011.0 |
| 20260831125742 | 73 | 80 | 0.0 | 0.0 | 0.00 | 0.00 | 0.00 | 87 | 1010.6 |
| 20260831125238 | 73 | 81 | 0.0 | 0.0 | 0.00 | 0.00 | 0.00 | 87 | 1010.6 |
| 20260831124732 | 73 | 81 | 0.0 | 0.0 | 0.00 | 0.00 | 0.00 | 88 | 1010.7 |
| 20260831124229 | 73 | 81 | 0.0 | 0.0 | 0.00 | 0.00 | 0.00 | 87 | 1010.4 |
| 20260831123728 | 73 | 81 | 0.0 | 0.0 | 0.00 | 0.00 | 0.00 | 87 | 1010.5 |
| 20260831123227 | 72 | 81 | 0.0 | 0.0 | 0.00 | 0.00 | 0.00 | 87 | 1010.3 |
| 20260831122722 | 72 | 81 | 0.0 | 0.0 | 0.00 | 0.00 | 0.00 | 87 | 1010.2 |
| 20260831122218 | 72 | 80 | 1.0 | 1.0 | 0.00 | 0.00 | 0.00 | 88 | 1010.2 |
| 20260831121717 | 72 | 80 | 0.0 | 0.0 | 0.00 | 0.00 | 0.00 | 88 | 1009.7 |
| 20260831121214 | 72 | 80 | 0.0 | 0.0 | 0.00 | 0.00 | 0.00 | 88 | 1009.8 |
| 20260831120709 | 72 | 81 | 0.0 | 0.0 | 0.00 | 0.00 | 0.00 | 88 | 1010.0 |
| 20260831120203 | 72 | 81 | 0.0 | 0.0 | 0.00 | 0.00 | 0.00 | 88 | 1009.7 |
| 20260831115659 | 72 | 81 | 0.0 | 0.0 | 0.00 | 0.00 | 0.00 | 87 | 1009.9 |
| 20260831115155 | 72 | 81 | 0.0 | 0.0 | 0.00 | 0.00 | 0.00 | 86 | 1009.9 |
| 20260831114654 | 73 | 81 | 0.0 | 0.0 | 0.00 | 0.00 | 0.00 | 86 | 1009.8 |
| 20260831114148 | 73 | 81 | 0.0 | 0.0 | 0.00 | 0.00 | 0.00 | 86 | 1009.4 |
| 20260831113648 | 73 | 81 | 0.0 | 0.0 | 0.00 | 0.00 | 0.00 | 85 | 1009.8 |
| 20260831113143 | 73 | 82 | 0.0 | 0.0 | 0.00 | 0.00 | 0.00 | 85 | 1009.6 |
| 20260831112642 | 73 | 81 | 0.0 | 0.0 | 0.00 | 0.00 | 0.00 | 85 | 1009.7 |
| 20260831112138 | 73 | 82 | 0.0 | 0.0 | 0.00 | 0.00 | 0.00 | 84 | 1009.8 |
| 20260831111634 | 73 | 81 | 1.0 | 1.0 | 0.00 | 0.00 | 0.00 | 84 | 1009.8 |
| 20260831111130 | 73 | 81 | 0.0 | 0.0 | 0.00 | 0.00 | 0.00 | 85 | 1009.4 |
| 20260831110625 | 73 | 82 | 0.0 | 0.0 | 0.00 | 0.00 | 0.00 | 84 | 1009.4 |
| 20260831110120 | 73 | 82 | 0.0 | 0.0 | 0.00 | 0.00 | 0.00 | 85 | 1009.5 |
| 20260831105619 | 73 | 82 | 0.0 | 0.0 | 0.00 | 0.00 | 0.00 | 85 | 1009.4 |
| 20260831105114 | 73 | 81 | 0.0 | 0.0 | 0.00 | 0.00 | 0.00 | 85 | 1009.4 |
| 20260831104610 | 73 | 82 | 2.0 | 2.0 | 0.00 | 0.00 | 0.00 | 85 | 1009.6 |
| 20260831104106 | 73 | 81 | 0.0 | 0.0 | 0.00 | 0.00 | 0.00 | 84 | 1009.4 |
| 20260831103601 | 74 | 82 | 1.0 | 2.0 | 0.00 | 0.00 | 0.00 | 84 | 1009.3 |
| 20260831103056 | 74 | 81 | 1.0 | 2.0 | 0.00 | 0.00 | 0.00 | 83 | 1009.4 |
| 20260831102550 | 74 | 83 | 2.0 | 3.0 | 0.00 | 0.00 | 0.00 | 82 | 1009.3 |
| 20260831102046 | 75 | 82 | 0.0 | 1.0 | 0.00 | 0.00 | 0.00 | 82 | 1009.4 |
| 20260831101540 | 75 | 82 | 1.0 | 2.0 | 0.00 | 0.00 | 0.00 | 82 | 1009.4 |
| 20260831101037 | 75 | 82 | 1.0 | 1.0 | 0.00 | 0.00 | 0.00 | 81 | 1009.4 |
| 20260831100532 | 75 | 82 | 0.0 | 1.0 | 0.00 | 0.00 | 0.00 | 81 | 1008.9 |
| 20260831100029 | 75 | 84 | 3.0 | 3.0 | 0.00 | 0.00 | 0.00 | 81 | 1009.2 |
| 20260831095527 | 75 | 82 | 1.0 | 1.0 | 0.00 | 0.00 | 0.00 | 81 | 1009.1 |
| 20260831095021 | 75 | 82 | 1.0 | 1.0 | 0.00 | 0.00 | 0.00 | 81 | 1009.0 |
| 20260831094518 | 75 | 82 | 0.0 | 0.0 | 0.00 | 0.00 | 0.00 | 81 | 1009.0 |
| 20260831094014 | 75 | 82 | 1.0 | 2.0 | 0.00 | 0.00 | 0.00 | 81 | 1009.1 |
| 20260831093513 | 75 | 82 | 1.0 | 1.0 | 0.00 | 0.00 | 0.00 | 81 | 1009.1 |
| 20260831093010 | 75 | 83 | 3.0 | 3.0 | 0.00 | 0.00 | 0.00 | 81 | 1009.1 |
| 20260831092505 | 75 | 83 | 2.0 | 3.0 | 0.00 | 0.00 | 0.00 | 80 | 1009.1 |
| 20260831092001 | 75 | 82 | 1.0 | 1.0 | 0.00 | 0.00 | 0.00 | 81 | 1009.1 |
| 20260831091455 | 76 | 82 | 1.0 | 1.0 | 0.00 | 0.00 | 0.00 | 81 | 1008.8 |
| 20260831090951 | 76 | 82 | 1.0 | 2.0 | 0.00 | 0.00 | 0.00 | 80 | 1009.1 |
| 20260831090447 | 76 | 85 | 1.0 | 1.0 | 0.00 | 0.00 | 0.00 | 80 | 1009.0 |
| 20260831085943 | 76 | 85 | 3.0 | 5.0 | 0.00 | 0.00 | 0.00 | 80 | 1009.0 |
| 20260831085438 | 76 | 84 | 1.0 | 1.0 | 0.00 | 0.00 | 0.00 | 80 | 1009.0 |
| 20260831084937 | 76 | 84 | 1.0 | 1.0 | 0.00 | 0.00 | 0.00 | 80 | 1009.1 |
| 20260831084433 | 76 | 85 | 2.0 | 2.0 | 0.00 | 0.00 | 0.00 | 80 | 1009.2 |
| 20260831083930 | 77 | 84 | 1.0 | 2.0 | 0.00 | 0.00 | 0.00 | 80 | 1009.2 |
| 20260831083425 | 77 | 83 | 0.0 | 0.0 | 0.00 | 0.00 | 0.00 | 79 | 1009.2 |
| 20260831082924 | 77 | 84 | 2.0 | 2.0 | 0.00 | 0.00 | 0.00 | 79 | 1008.9 |
| 20260831082424 | 77 | 84 | 3.0 | 3.0 | 0.00 | 0.00 | 0.00 | 79 | 1009.0 |
| 20260831081919 | 77 | 83 | 1.0 | 1.0 | 0.00 | 0.00 | 0.00 | 80 | 1009.1 |
| 20260831081415 | 77 | 83 | 1.0 | 1.0 | 0.00 | 0.00 | 0.00 | 80 | 1008.8 |
| 20260831080911 | 77 | 82 | 1.0 | 1.0 | 0.00 | 0.00 | 0.00 | 80 | 1008.9 |
| 20260831080406 | 77 | 82 | 1.0 | 1.0 | 0.00 | 0.00 | 0.00 | 80 | 1008.9 |
| 20260831075901 | 77 | 84 | 3.0 | 6.0 | 0.00 | 0.00 | 0.00 | 80 | 1008.9 |
| 20260831075356 | 77 | 83 | 1.0 | 1.0 | 0.00 | 0.00 | 0.00 | 80 | 1008.9 |
| 20260831074851 | 77 | 82 | 1.0 | 1.0 | 0.00 | 0.00 | 0.00 | 80 | 1008.9 |
| 20260831074350 | 77 | 82 | 1.0 | 2.0 | 0.00 | 0.00 | 0.00 | 80 | 1009.0 |
| 20260831073846 | 77 | 82 | 2.0 | 2.0 | 0.00 | 0.00 | 0.00 | 81 | 1009.1 |
| 20260831073345 | 77 | 82 | 1.0 | 1.0 | 0.00 | 0.00 | 0.00 | 82 | 1009.1 |
| 20260831072840 | 77 | 82 | 1.0 | 1.0 | 0.00 | 0.00 | 0.00 | 81 | 1009.3 |
| 20260831072336 | 77 | 83 | 1.0 | 2.0 | 0.00 | 0.00 | 0.00 | 82 | 1009.2 |
| 20260831071832 | 77 | 83 | 1.0 | 1.0 | 0.00 | 0.00 | 0.00 | 82 | 1009.1 |
| 20260831071331 | 77 | 83 | 1.0 | 2.0 | 0.00 | 0.00 | 0.00 | 83 | 1009.1 |
| 20260831070826 | 77 | 82 | 0.0 | 1.0 | 0.00 | 0.00 | 0.00 | 83 | 1009.1 |
| 20260831070325 | 77 | 83 | 1.0 | 1.0 | 0.00 | 0.00 | 0.00 | 84 | 1009.2 |
| 20260831065824 | 77 | 82 | 1.0 | 1.0 | 0.00 | 0.00 | 0.00 | 84 | 1009.1 |
| 20260831065322 | 77 | 83 | 1.0 | 1.0 | 0.00 | 0.00 | 0.00 | 84 | 1009.2 |
| 20260831064817 | 77 | 82 | 1.0 | 1.0 | 0.00 | 0.00 | 0.00 | 84 | 1009.1 |
| 20260831064313 | 77 | 82 | 0.0 | 1.0 | 0.00 | 0.00 | 0.00 | 84 | 1009.2 |
| 20260831063809 | 76 | 82 | 0.0 | 1.0 | 0.00 | 0.00 | 0.00 | 85 | 1009.2 |
| 20260831063304 | 77 | 82 | 1.0 | 1.0 | 0.00 | 0.00 | 0.00 | 85 | 1009.3 |
| 20260831062803 | 76 | 82 | 0.0 | 0.0 | 0.00 | 0.00 | 0.00 | 86 | 1009.4 |
| 20260831062258 | 77 | 82 | 0.0 | 0.0 | 0.00 | 0.00 | 0.00 | 86 | 1009.4 |
| 20260831061757 | 77 | 82 | 0.0 | 1.0 | 0.00 | 0.00 | 0.00 | 86 | 1009.4 |
| 20260831061251 | 77 | 82 | 1.0 | 1.0 | 0.00 | 0.00 | 0.00 | 86 | 1009.2 |
| 20260831060748 | 77 | 82 | 1.0 | 1.0 | 0.00 | 0.00 | 0.00 | 86 | 1009.3 |
| 20260831060247 | 77 | 82 | 0.0 | 0.0 | 0.00 | 0.00 | 0.00 | 86 | 1009.4 |
| 20260831055747 | 77 | 82 | 0.0 | 0.0 | 0.00 | 0.00 | 0.00 | 86 | 1009.1 |
| 20260831055242 | 77 | 82 | 0.0 | 0.0 | 0.00 | 0.00 | 0.00 | 86 | 1009.4 |
| 20260831054737 | 77 | 82 | 0.0 | 0.0 | 0.00 | 0.00 | 0.00 | 86 | 1009.2 |
| 20260831054232 | 77 | 82 | 0.0 | 0.0 | 0.00 | 0.00 | 0.00 | 86 | 1009.3 |
| 20260831053731 | 77 | 82 | 0.0 | 1.0 | 0.00 | 0.00 | 0.00 | 86 | 1009.3 |
| 20260831053230 | 77 | 82 | 1.0 | 1.0 | 0.00 | 0.00 | 0.00 | 87 | 1009.2 |
| 20260831052729 | 77 | 82 | 0.0 | 0.0 | 0.00 | 0.00 | 0.00 | 87 | 1009.1 |
| 20260831052223 | 77 | 82 | 1.0 | 2.0 | 0.00 | 0.00 | 0.00 | 87 | 1009.1 |
| 20260831051722 | 77 | 82 | 1.0 | 1.0 | 0.00 | 0.00 | 0.00 | 87 | 1009.3 |
| 20260831051220 | 77 | 82 | 0.0 | 1.0 | 0.00 | 0.00 | 0.00 | 87 | 1009.2 |
| 20260831050715 | 77 | 82 | 0.0 | 0.0 | 0.00 | 0.00 | 0.00 | 87 | 1009.3 |
| 20260831050214 | 77 | 82 | 0.0 | 1.0 | 0.00 | 0.00 | 0.00 | 87 | 1009.1 |
| 20260831045709 | 78 | 82 | 0.0 | 0.0 | 0.00 | 0.02 | 0.02 | 87 | 1009.0 |
| 20260831045204 | 78 | 82 | 0.0 | 1.0 | 0.00 | 0.02 | 0.02 | 87 | 1009.2 |
| 20260831044659 | 78 | 82 | 0.0 | 1.0 | 0.00 | 0.02 | 0.02 | 87 | 1009.2 |
| 20260831044154 | 78 | 82 | 0.0 | 0.0 | 0.00 | 0.02 | 0.02 | 87 | 1009.4 |
| 20260831043649 | 78 | 82 | 0.0 | 0.0 | 0.00 | 0.02 | 0.02 | 87 | 1009.1 |
| 20260831043144 | 78 | 82 | 0.0 | 0.0 | 0.00 | 0.02 | 0.02 | 86 | 1009.1 |
| 20260831042643 | 78 | 82 | 0.0 | 1.0 | 0.00 | 0.02 | 0.02 | 87 | 1009.1 |
| 20260831042138 | 79 | 82 | 0.0 | 1.0 | 0.00 | 0.02 | 0.02 | 87 | 1009.3 |
| 20260831041633 | 79 | 82 | 1.0 | 1.0 | 0.00 | 0.02 | 0.02 | 87 | 1008.9 |
| 20260831041127 | 78 | 82 | 1.0 | 2.0 | 0.00 | 0.02 | 0.02 | 88 | 1009.1 |
| 20260831040622 | 78 | 82 | 1.0 | 1.0 | 0.00 | 0.02 | 0.02 | 88 | 1009.2 |
| 20260831040121 | 78 | 82 | 0.0 | 0.0 | 0.00 | 0.02 | 0.02 | 88 | 1008.9 |
| 20260831035620 | 79 | 82 | 0.0 | 0.0 | 0.00 | 0.02 | 0.02 | 89 | 1009.1 |
| 20260831035115 | 79 | 82 | 0.0 | 0.0 | 0.00 | 0.02 | 0.02 | 89 | 1009.2 |
| 20260831034614 | 79 | 82 | 0.0 | 0.0 | 0.00 | 0.02 | 0.02 | 89 | 1008.9 |
| 20260831034109 | 79 | 82 | 1.0 | 1.0 | 0.00 | 0.02 | 0.02 | 89 | 1009.1 |
| 20260831033605 | 79 | 82 | 0.0 | 1.0 | 0.00 | 0.02 | 0.02 | 88 | 1009.3 |
| 20260831033100 | 79 | 82 | 1.0 | 1.0 | 0.00 | 0.02 | 0.02 | 89 | 1009.3 |
| 20260831032559 | 79 | 82 | 1.0 | 2.0 | 0.00 | 0.02 | 0.02 | 88 | 1009.1 |
| 20260831032055 | 79 | 82 | 0.0 | 0.0 | 0.00 | 0.02 | 0.02 | 88 | 1009.1 |
| 20260831031555 | 79 | 82 | 0.0 | 0.0 | 0.00 | 0.02 | 0.02 | 88 | 1009.4 |
| 20260831031054 | 80 | 82 | 1.0 | 1.0 | 0.00 | 0.02 | 0.02 | 88 | 1009.3 |
| 20260831030553 | 80 | 82 | 0.0 | 0.0 | 0.00 | 0.02 | 0.02 | 88 | 1008.9 |
| 20260831030052 | 80 | 82 | 0.0 | 0.0 | 0.00 | 0.02 | 0.02 | 88 | 1009.3 |
| 20260831025551 | 80 | 82 | 0.0 | 0.0 | 0.00 | 0.02 | 0.02 | 88 | 1009.2 |
| 20260831025046 | 80 | 82 | 0.0 | 0.0 | 0.00 | 0.02 | 0.02 | 88 | 1009.2 |
| 20260831024542 | 80 | 82 | 0.0 | 1.0 | 0.00 | 0.02 | 0.02 | 88 | 1009.2 |
| 20260831024040 | 80 | 82 | 0.0 | 0.0 | 0.00 | 0.02 | 0.02 | 89 | 1009.3 |
| 20260831023539 | 80 | 82 | 0.0 | 0.0 | 0.00 | 0.02 | 0.02 | 89 | 1009.3 |
| 20260831023034 | 79 | 82 | 0.0 | 0.0 | 0.00 | 0.02 | 0.02 | 91 | 1009.4 |
| 20260831022533 | 79 | 82 | 0.0 | 1.0 | 0.00 | 0.02 | 0.02 | 92 | 1009.3 |
| 20260831022029 | 78 | 82 | 1.0 | 2.0 | 0.00 | 0.02 | 0.02 | 93 | 1009.2 |
| 20260831021527 | 78 | 82 | 0.0 | 0.0 | 0.00 | 0.02 | 0.02 | 94 | 1009.2 |
| 20260831021024 | 78 | 82 | 0.0 | 0.0 | 0.00 | 0.02 | 0.02 | 95 | 1009.3 |
| 20260831020519 | 78 | 82 | 0.0 | 0.0 | 0.00 | 0.02 | 0.02 | 95 | 1009.4 |
| 20260831020013 | 78 | 82 | 0.0 | 0.0 | 0.00 | 0.02 | 0.02 | 94 | 1009.2 |
| 20260831015509 | 79 | 82 | 0.0 | 0.0 | 0.00 | 0.02 | 0.02 | 94 | 1009.3 |
| 20260831015004 | 79 | 82 | 0.0 | 0.0 | 0.00 | 0.02 | 0.02 | 94 | 1009.0 |
| 20260831014458 | 79 | 82 | 0.0 | 0.0 | 0.00 | 0.02 | 0.02 | 94 | 1009.2 |
| 20260831013954 | 79 | 81 | 1.0 | 1.0 | 0.00 | 0.02 | 0.02 | 94 | 1009.2 |
| 20260831013450 | 79 | 82 | 0.0 | 0.0 | 0.00 | 0.02 | 0.02 | 94 | 1008.9 |
| 20260831012944 | 79 | 82 | 0.0 | 0.0 | 0.00 | 0.02 | 0.02 | 94 | 1008.8 |
| 20260831012439 | 79 | 82 | 1.0 | 1.0 | 0.00 | 0.02 | 0.02 | 94 | 1008.9 |
| 20260831011939 | 79 | 82 | 0.0 | 0.0 | 0.00 | 0.02 | 0.02 | 95 | 1008.9 |
| 20260831011433 | 79 | 82 | 0.0 | 1.0 | 0.00 | 0.02 | 0.02 | 95 | 1008.9 |
| 20260831010929 | 79 | 82 | 0.0 | 0.0 | 0.00 | 0.02 | 0.02 | 95 | 1008.8 |
| 20260831010424 | 79 | 82 | 0.0 | 0.0 | 0.00 | 0.02 | 0.02 | 95 | 1008.8 |
| 20260831005920 | 79 | 82 | 0.0 | 0.0 | 0.00 | 0.02 | 0.02 | 94 | 1008.8 |
| 20260831005415 | 79 | 82 | 0.0 | 0.0 | 0.00 | 0.02 | 0.02 | 94 | 1008.9 |
| 20260831004909 | 80 | 82 | 0.0 | 0.0 | 0.00 | 0.02 | 0.02 | 94 | 1008.9 |
| 20260831004406 | 80 | 82 | 0.0 | 0.0 | 0.00 | 0.02 | 0.02 | 93 | 1008.6 |
| 20260831003901 | 80 | 82 | 0.0 | 0.0 | 0.00 | 0.02 | 0.02 | 92 | 1008.9 |
| 20260831003357 | 81 | 82 | 0.0 | 0.0 | 0.00 | 0.02 | 0.02 | 92 | 1008.6 |
| 20260831002857 | 81 | 82 | 0.0 | 0.0 | 0.00 | 0.02 | 0.02 | 91 | 1008.8 |
| 20260831002356 | 81 | 83 | 0.0 | 0.0 | 0.00 | 0.02 | 0.02 | 90 | 1008.8 |
| 20260831001851 | 82 | 83 | 0.0 | 0.0 | 0.00 | 0.02 | 0.02 | 89 | 1008.8 |
| 20260831001346 | 82 | 83 | 0.0 | 0.0 | 0.00 | 0.02 | 0.02 | 89 | 1008.8 |
| 20260831000843 | 83 | 83 | 0.0 | 0.0 | 0.00 | 0.02 | 0.02 | 88 | 1008.9 |
| 20260831000340 | 83 | 83 | 0.0 | 0.0 | 0.00 | 0.02 | 0.02 | 88 | 1009.0 |
| 20260830235836 | 83 | 83 | 0.0 | 0.0 | 0.00 | 0.02 | 0.02 | 88 | 1009.1 |
| 20260830235331 | 83 | 83 | 0.0 | 0.0 | 0.00 | 0.02 | 0.02 | 88 | 1009.0 |
| 20260830234827 | 83 | 83 | 0.0 | 0.0 | 0.00 | 0.02 | 0.02 | 87 | 1008.9 |
| 20260830234323 | 83 | 83 | 0.0 | 0.0 | 0.00 | 0.02 | 0.02 | 87 | 1008.8 |
| 20260830233818 | 83 | 83 | 0.0 | 0.0 | 0.00 | 0.02 | 0.02 | 86 | 1008.8 |
| 20260830233313 | 83 | 83 | 0.0 | 0.0 | 0.00 | 0.02 | 0.02 | 86 | 1008.9 |
| 20260830232809 | 83 | 83 | 0.0 | 0.0 | 0.00 | 0.02 | 0.02 | 86 | 1008.8 |
| 20260830232306 | 83 | 83 | 0.0 | 1.0 | 0.00 | 0.02 | 0.02 | 87 | 1008.6 |
| 20260830231801 | 83 | 83 | 1.0 | 1.0 | 0.00 | 0.02 | 0.02 | 87 | 1008.5 |
| 20260830231301 | 83 | 83 | 1.0 | 1.0 | 0.00 | 0.02 | 0.02 | 86 | 1008.6 |
| 20260830230755 | 83 | 83 | 0.0 | 0.0 | 0.00 | 0.02 | 0.02 | 85 | 1008.6 |
| 20260830230251 | 84 | 83 | 1.0 | 1.0 | 0.00 | 0.02 | 0.02 | 85 | 1008.4 |
| 20260830225750 | 84 | 83 | 0.0 | 0.0 | 0.00 | 0.02 | 0.02 | 83 | 1008.4 |
| 20260830225246 | 85 | 84 | 0.0 | 0.0 | 0.00 | 0.02 | 0.02 | 82 | 1008.6 |
| 20260830224744 | 84 | 84 | 1.0 | 2.0 | 0.00 | 0.02 | 0.02 | 84 | 1008.5 |
| 20260830224240 | 83 | 83 | 0.0 | 1.0 | 0.00 | 0.02 | 0.02 | 83 | 1008.7 |
| 20260830223736 | 83 | 83 | 0.0 | 0.0 | 0.00 | 0.02 | 0.02 | 83 | 1008.7 |
| 20260830223232 | 83 | 83 | 1.0 | 1.0 | 0.00 | 0.02 | 0.02 | 83 | 1008.9 |
| 20260830222726 | 83 | 83 | 1.0 | 1.0 | 0.00 | 0.02 | 0.02 | 83 | 1008.7 |
| 20260830222222 | 83 | 84 | 0.0 | 1.0 | 0.00 | 0.02 | 0.02 | 82 | 1008.8 |
| 20260830221717 | 84 | 83 | 0.0 | 1.0 | 0.00 | 0.02 | 0.02 | 82 | 1008.7 |
| 20260830221214 | 84 | 84 | 0.0 | 1.0 | 0.00 | 0.02 | 0.02 | 81 | 1008.4 |
| 20260830220709 | 86 | 84 | 1.0 | 1.0 | 0.00 | 0.02 | 0.02 | 78 | 1008.6 |
| 20260830220208 | 86 | 84 | 0.0 | 1.0 | 0.00 | 0.02 | 0.02 | 80 | 1008.4 |
| 20260830215707 | 85 | 84 | 2.0 | 3.0 | 0.00 | 0.02 | 0.02 | 82 | 1008.4 |
| 20260830215202 | 84 | 84 | 1.0 | 1.0 | 0.00 | 0.02 | 0.02 | 81 | 1008.4 |
| 20260830214657 | 84 | 84 | 0.0 | 1.0 | 0.00 | 0.02 | 0.02 | 83 | 1008.4 |
| 20260830214157 | 84 | 84 | 1.0 | 1.0 | 0.00 | 0.02 | 0.02 | 81 | 1008.8 |
| 20260830213656 | 84 | 84 | 1.0 | 1.0 | 0.00 | 0.02 | 0.02 | 81 | 1008.7 |
| 20260830213152 | 84 | 83 | 0.0 | 0.0 | 0.00 | 0.02 | 0.02 | 80 | 1008.8 |
| 20260830212648 | 84 | 84 | 0.0 | 1.0 | 0.00 | 0.02 | 0.02 | 80 | 1008.7 |
| 20260830212142 | 83 | 83 | 0.0 | 0.0 | 0.00 | 0.02 | 0.02 | 81 | 1008.9 |
| 20260830211638 | 84 | 84 | 1.0 | 1.0 | 0.00 | 0.02 | 0.02 | 79 | 1009.0 |
| 20260830211136 | 84 | 84 | 2.0 | 2.0 | 0.00 | 0.02 | 0.02 | 79 | 1008.9 |
| 20260830210633 | 85 | 84 | 0.0 | 1.0 | 0.00 | 0.02 | 0.02 | 78 | 1009.0 |
| 20260830210132 | 86 | 84 | 1.0 | 1.0 | 0.00 | 0.02 | 0.02 | 77 | 1008.8 |
| 20260830205629 | 86 | 84 | 0.0 | 1.0 | 0.00 | 0.02 | 0.02 | 75 | 1008.6 |
| 20260830205125 | 85 | 84 | 1.0 | 1.0 | 0.00 | 0.02 | 0.02 | 79 | 1008.5 |
| 20260830204624 | 85 | 84 | 0.0 | 1.0 | 0.00 | 0.02 | 0.02 | 79 | 1008.6 |
| 20260830204123 | 84 | 83 | 0.0 | 0.0 | 0.00 | 0.02 | 0.02 | 83 | 1008.9 |
| 20260830203619 | 83 | 84 | 0.0 | 0.0 | 0.00 | 0.02 | 0.02 | 81 | 1008.9 |
| 20260830203119 | 83 | 84 | 0.0 | 1.0 | 0.00 | 0.02 | 0.02 | 82 | 1009.1 |
| 20260830202619 | 83 | 84 | 0.0 | 1.0 | 0.00 | 0.02 | 0.02 | 81 | 1009.1 |
| 20260830202114 | 83 | 84 | 2.0 | 2.0 | 0.00 | 0.02 | 0.02 | 80 | 1009.0 |
| 20260830201614 | 83 | 84 | 0.0 | 0.0 | 0.00 | 0.02 | 0.02 | 80 | 1009.1 |
| 20260830201109 | 83 | 84 | 0.0 | 0.0 | 0.00 | 0.02 | 0.02 | 81 | 1009.2 |
| 20260830200605 | 83 | 84 | 1.0 | 1.0 | 0.00 | 0.02 | 0.02 | 78 | 1009.4 |
| 20260830200103 | 82 | 85 | 2.0 | 2.0 | 0.00 | 0.02 | 0.02 | 79 | 1009.2 |
| 20260830195559 | 81 | 84 | 1.0 | 1.0 | 0.00 | 0.02 | 0.02 | 80 | 1009.3 |
| 20260830195056 | 80 | 85 | 1.0 | 2.0 | 0.00 | 0.02 | 0.02 | 80 | 1009.5 |
| 20260830194551 | 80 | 84 | 5.0 | 8.0 | 0.00 | 0.02 | 0.02 | 81 | 1009.5 |
| 20260830194045 | 80 | 84 | 0.0 | 0.0 | 0.00 | 0.02 | 0.02 | 81 | 1009.3 |
| 20260830193544 | 80 | 84 | 1.0 | 2.0 | 0.00 | 0.02 | 0.02 | 80 | 1009.3 |
| 20260830193040 | 81 | 84 | 1.0 | 1.0 | 0.00 | 0.02 | 0.02 | 77 | 1009.7 |
| 20260830192535 | 82 | 85 | 2.0 | 2.0 | 0.00 | 0.02 | 0.02 | 75 | 1009.5 |
| 20260830192030 | 82 | 85 | 2.0 | 2.0 | 0.00 | 0.02 | 0.02 | 75 | 1009.5 |
| 20260830191525 | 81 | 84 | 0.0 | 1.0 | 0.00 | 0.02 | 0.02 | 78 | 1009.4 |
| 20260830191020 | 82 | 85 | 1.0 | 1.0 | 0.00 | 0.02 | 0.02 | 77 | 1009.6 |
| 20260830190515 | 81 | 86 | 4.0 | 6.0 | 0.00 | 0.02 | 0.02 | 76 | 1009.2 |
| 20260830190010 | 81 | 84 | 1.0 | 1.0 | 0.00 | 0.02 | 0.02 | 76 | 1009.6 |
| 20260830185504 | 80 | 84 | 2.0 | 2.0 | 0.00 | 0.02 | 0.02 | 78 | 1009.7 |
| 20260830185000 | 80 | 85 | 3.0 | 3.0 | 0.00 | 0.02 | 0.02 | 79 | 1009.4 |
| 20260830184459 | 80 | 84 | 1.0 | 1.0 | 0.00 | 0.02 | 0.02 | 78 | 1009.5 |
| 20260830183953 | 80 | 84 | 1.0 | 1.0 | 0.00 | 0.02 | 0.02 | 79 | 1009.7 |
| 20260830183448 | 79 | 84 | 1.0 | 1.0 | 0.00 | 0.02 | 0.02 | 80 | 1009.5 |
| 20260830182944 | 79 | 84 | 1.0 | 1.0 | 0.00 | 0.02 | 0.02 | 79 | 1009.6 |
| 20260830182439 | 79 | 84 | 2.0 | 2.0 | 0.00 | 0.02 | 0.02 | 79 | 1009.6 |
| 20260830181935 | 79 | 84 | 1.0 | 1.0 | 0.00 | 0.02 | 0.02 | 78 | 1009.7 |
| 20260830181431 | 79 | 84 | 1.0 | 1.0 | 0.00 | 0.02 | 0.02 | 79 | 1009.8 |
| 20260830180925 | 79 | 84 | 1.0 | 1.0 | 0.00 | 0.02 | 0.02 | 78 | 1009.9 |
| 20260830180425 | 79 | 84 | 2.0 | 2.0 | 0.00 | 0.02 | 0.02 | 79 | 1009.9 |
| 20260830175924 | 79 | 86 | 2.0 | 2.0 | 0.00 | 0.02 | 0.02 | 78 | 1010.2 |
| 20260830175423 | 80 | 84 | 1.0 | 2.0 | 0.00 | 0.02 | 0.02 | 76 | 1009.9 |
| 20260830174919 | 80 | 85 | 1.0 | 2.0 | 0.00 | 0.02 | 0.02 | 76 | 1009.9 |
| 20260830174414 | 80 | 84 | 1.0 | 1.0 | 0.00 | 0.02 | 0.02 | 77 | 1010.1 |
| 20260830173910 | 80 | 85 | 2.0 | 2.0 | 0.00 | 0.02 | 0.02 | 77 | 1010.1 |
| 20260830173405 | 80 | 84 | 1.0 | 1.0 | 0.00 | 0.02 | 0.02 | 77 | 1010.1 |
| 20260830172901 | 80 | 84 | 1.0 | 1.0 | 0.00 | 0.02 | 0.02 | 77 | 1010.1 |
| 20260830172357 | 80 | 85 | 2.0 | 2.0 | 0.00 | 0.02 | 0.02 | 75 | 1010.2 |
| 20260830171852 | 80 | 100 | 6.0 | 7.0 | 0.00 | 0.02 | 0.02 | 76 | 1010.3 |
| 20260830171348 | 80 | 85 | 2.0 | 2.0 | 0.00 | 0.02 | 0.02 | 75 | 1010.3 |
| 20260830170843 | 79 | 86 | 2.0 | 2.0 | 0.00 | 0.02 | 0.02 | 76 | 1010.3 |
| 20260830170342 | 79 | 86 | 2.0 | 2.0 | 0.00 | 0.02 | 0.02 | 77 | 1010.5 |
| 20260830165840 | 79 | 84 | 1.0 | 2.0 | 0.00 | 0.02 | 0.02 | 77 | 1010.4 |
| 20260830165337 | 78 | 85 | 0.0 | 1.0 | 0.00 | 0.02 | 0.02 | 79 | 1010.6 |
| 20260830164833 | 77 | 84 | 0.0 | 0.0 | 0.00 | 0.02 | 0.02 | 80 | 1010.4 |
| 20260830164328 | 77 | 83 | 0.0 | 0.0 | 0.00 | 0.02 | 0.02 | 80 | 1010.4 |
| 20260830163825 | 77 | 83 | 1.0 | 1.0 | 0.00 | 0.02 | 0.02 | 82 | 1010.4 |
| 20260830163320 | 77 | 83 | 1.0 | 1.0 | 0.00 | 0.02 | 0.02 | 81 | 1010.7 |
| 20260830162815 | 76 | 84 | 2.0 | 2.0 | 0.00 | 0.02 | 0.02 | 82 | 1010.7 |
| 20260830162311 | 76 | 84 | 1.0 | 2.0 | 0.00 | 0.02 | 0.02 | 82 | 1010.5 |
| 20260830161806 | 75 | 83 | 1.0 | 1.0 | 0.00 | 0.02 | 0.02 | 83 | 1010.6 |
| 20260830161305 | 75 | 84 | 2.0 | 2.0 | 0.00 | 0.02 | 0.02 | 84 | 1010.3 |
| 20260830160801 | 75 | 83 | 1.0 | 1.0 | 0.00 | 0.02 | 0.02 | 85 | 1010.4 |
| 20260830160301 | 75 | 83 | 1.0 | 1.0 | 0.00 | 0.02 | 0.02 | 85 | 1010.4 |
| 20260830155751 | 74 | 83 | 1.0 | 2.0 | 0.00 | 0.02 | 0.02 | 86 | 1010.4 |
| 20260830155248 | 74 | 82 | 1.0 | 2.0 | 0.00 | 0.02 | 0.02 | 88 | 1010.4 |
| 20260830154748 | 74 | 82 | 0.0 | 1.0 | 0.00 | 0.02 | 0.02 | 89 | 1010.8 |
| 20260830154243 | 73 | 82 | 1.0 | 1.0 | 0.00 | 0.02 | 0.02 | 89 | 1010.6 |
| 20260830153740 | 73 | 82 | 0.0 | 0.0 | 0.00 | 0.02 | 0.02 | 90 | 1010.9 |
| 20260830153235 | 73 | 82 | 0.0 | 0.0 | 0.00 | 0.02 | 0.02 | 90 | 1010.6 |
| 20260830152733 | 73 | 82 | 0.0 | 0.0 | 0.00 | 0.02 | 0.02 | 90 | 1010.6 |
| 20260830152228 | 73 | 83 | 1.0 | 1.0 | 0.00 | 0.02 | 0.02 | 90 | 1010.6 |
| 20260830151723 | 73 | 82 | 1.0 | 1.0 | 0.00 | 0.02 | 0.02 | 91 | 1010.3 |
| 20260830151222 | 73 | 82 | 0.0 | 0.0 | 0.00 | 0.02 | 0.02 | 91 | 1010.3 |
| 20260830150717 | 73 | 82 | 0.0 | 1.0 | 0.07 | 0.02 | 0.02 | 91 | 1010.1 |
| 20260830150211 | 73 | 82 | 0.0 | 0.0 | 0.07 | 0.02 | 0.02 | 91 | 1010.1 |
| 20260830145706 | 73 | 82 | 1.0 | 2.0 | 0.00 | 0.01 | 0.01 | 90 | 1010.4 |
| 20260830145201 | 72 | 85 | 3.0 | 5.0 | 0.00 | 0.01 | 0.01 | 91 | 1010.1 |
| 20260830144656 | 72 | 82 | 1.0 | 2.0 | 0.00 | 0.01 | 0.01 | 92 | 1010.0 |
| 20260830144152 | 72 | 82 | 0.0 | 0.0 | 0.00 | 0.01 | 0.01 | 93 | 1010.0 |
| 20260830143648 | 71 | 82 | 0.0 | 1.0 | 0.00 | 0.01 | 0.01 | 94 | 1010.0 |
| 20260830143146 | 72 | 81 | 0.0 | 0.0 | 0.00 | 0.01 | 0.01 | 94 | 1009.8 |
| 20260830142641 | 72 | 81 | 0.0 | 1.0 | 0.00 | 0.01 | 0.01 | 93 | 1009.6 |
| 20260830142136 | 72 | 81 | 1.0 | 1.0 | 0.05 | 0.01 | 0.01 | 92 | 1009.6 |
| 20260830141631 | 73 | 80 | 0.0 | 1.0 | 0.05 | 0.01 | 0.01 | 90 | 1009.6 |
| 20260830141126 | 74 | 82 | 1.0 | 1.0 | 0.00 | 0.00 | 0.00 | 87 | 1009.8 |
| 20260830140622 | 74 | 84 | 0.0 | 0.0 | 0.00 | 0.00 | 0.00 | 85 | 1010.0 |
| 20260830140122 | 75 | 84 | 0.0 | 0.0 | 0.00 | 0.00 | 0.00 | 84 | 1009.9 |
| 20260830135621 | 75 | 87 | 3.0 | 3.0 | 0.00 | 0.00 | 0.00 | 83 | 1010.0 |
| 20260830135116 | 75 | 85 | 1.0 | 2.0 | 0.00 | 0.00 | 0.00 | 82 | 1010.2 |
| 20260830134612 | 76 | 86 | 2.0 | 2.0 | 0.00 | 0.00 | 0.00 | 81 | 1010.2 |
| 20260830134108 | 76 | 87 | 3.0 | 3.0 | 0.00 | 0.00 | 0.00 | 81 | 1010.3 |
| 20260830133603 | 76 | 87 | 3.0 | 3.0 | 0.00 | 0.00 | 0.00 | 79 | 1010.0 |
| 20260830133058 | 77 | 89 | 5.0 | 6.0 | 0.00 | 0.00 | 0.00 | 78 | 1009.7 |
| 20260830132554 | 77 | 86 | 2.0 | 3.0 | 0.00 | 0.00 | 0.00 | 78 | 1009.6 |
| 20260830132049 | 76 | 86 | 2.0 | 3.0 | 0.00 | 0.00 | 0.00 | 77 | 1009.5 |